createdAt,value
2023-05-25T00:01:30.948Z,15.81
2023-05-25T00:04:00.647Z,15.86
2023-05-25T00:06:30.018Z,15.85
2023-05-25T00:08:58.588Z,15.82
2023-05-25T00:11:26.772Z,15.80
2023-05-25T00:13:54.733Z,15.80
2023-05-25T00:16:22.586Z,15.83
2023-05-25T00:18:50.574Z,15.82
2023-05-25T00:21:18.355Z,15.80
2023-05-25T00:23:47.510Z,15.81
2023-05-25T00:26:15.297Z,15.76
2023-05-25T00:28:43.186Z,15.75
2023-05-25T00:31:11.632Z,15.77
2023-05-25T00:33:39.420Z,15.68
2023-05-25T00:36:08.796Z,15.67
2023-05-25T00:38:37.536Z,15.68
2023-05-25T00:41:07.757Z,15.69
2023-05-25T00:43:36.659Z,15.68
2023-05-25T00:46:04.843Z,15.65
2023-05-25T00:48:33.278Z,15.65
2023-05-25T00:51:01.516Z,15.61
2023-05-25T00:53:29.461Z,15.61
2023-05-25T00:56:03.916Z,15.48
2023-05-25T00:58:37.466Z,15.49
2023-05-25T01:01:11.744Z,15.37
2023-05-25T01:03:45.644Z,15.44
2023-05-25T01:06:16.919Z,15.43
2023-05-25T01:08:52.664Z,15.47
2023-05-25T01:11:26.335Z,15.47
2023-05-25T01:13:56.225Z,15.41
2023-05-25T01:16:26.019Z,15.44
2023-05-25T01:18:53.991Z,15.38
2023-05-25T01:21:27.119Z,15.42
2023-05-25T01:24:04.701Z,15.44
2023-05-25T01:26:39.307Z,15.43
2023-05-25T01:29:08.041Z,15.41
2023-05-25T01:31:37.147Z,15.43
2023-05-25T01:34:06.816Z,15.40
2023-05-25T01:36:36.111Z,15.36
2023-05-25T01:39:07.506Z,15.41
2023-05-25T01:41:35.330Z,15.41
2023-05-25T01:44:03.379Z,15.43
2023-05-25T01:46:37.989Z,15.40
2023-05-25T01:49:15.215Z,15.47
2023-05-25T01:51:55.663Z,15.43
2023-05-25T01:54:30.533Z,15.44
2023-05-25T01:57:01.336Z,15.43
2023-05-25T01:59:30.912Z,15.39
2023-05-25T02:02:01.953Z,15.32
2023-05-25T02:04:31.402Z,15.38
2023-05-25T02:07:01.104Z,15.35
2023-05-25T02:09:29.076Z,15.34
2023-05-25T02:11:56.933Z,15.36
2023-05-25T02:14:24.896Z,15.33
2023-05-25T02:16:52.730Z,15.37
2023-05-25T02:19:20.895Z,15.34
2023-05-25T02:21:48.761Z,15.36
2023-05-25T02:24:18.472Z,15.29
2023-05-25T02:26:46.638Z,15.27
2023-05-25T02:29:15.027Z,15.24
2023-05-25T02:31:43.046Z,15.26
2023-05-25T02:34:11.808Z,15.28
2023-05-25T02:36:39.751Z,15.30
2023-05-25T02:39:07.644Z,15.32
2023-05-25T02:41:36.865Z,15.24
2023-05-25T02:44:04.884Z,15.25
2023-05-25T02:46:33.640Z,15.21
2023-05-25T02:49:02.001Z,15.21
2023-05-25T02:51:30.701Z,15.22
2023-05-25T02:54:00.812Z,15.11
2023-05-25T02:56:28.668Z,15.15
2023-05-25T02:58:59.710Z,15.12
2023-05-25T03:01:31.989Z,15.15
2023-05-25T03:04:00.147Z,15.14
2023-05-25T03:06:29.886Z,15.13
2023-05-25T03:09:04.572Z,15.09
2023-05-25T03:11:32.951Z,15.14
2023-05-25T03:14:03.186Z,15.12
2023-05-25T03:16:36.356Z,15.12
2023-05-25T03:19:05.564Z,15.11
2023-05-25T03:21:35.748Z,15.08
2023-05-25T03:24:03.624Z,15.06
2023-05-25T03:26:32.298Z,15.10
2023-05-25T03:29:03.080Z,15.07
2023-05-25T03:31:31.012Z,15.10
2023-05-25T03:33:59.518Z,15.09
2023-05-25T03:36:28.441Z,15.09
2023-05-25T03:38:56.497Z,15.08
2023-05-25T03:41:24.424Z,15.07
2023-05-25T03:43:53.153Z,15.10
2023-05-25T03:46:23.213Z,15.09
2023-05-25T03:48:51.180Z,15.09
2023-05-25T03:51:19.166Z,15.09
2023-05-25T03:53:46.978Z,15.10
2023-05-25T03:56:14.953Z,15.08
2023-05-25T03:58:42.847Z,15.13
2023-05-25T04:01:12.566Z,15.10
2023-05-25T04:03:41.987Z,15.11
2023-05-25T04:06:09.998Z,15.09
2023-05-25T04:08:37.815Z,15.14
2023-05-25T04:11:06.445Z,15.15
2023-05-25T04:13:36.796Z,15.17
2023-05-25T04:16:06.305Z,15.18
2023-05-25T04:18:34.534Z,15.15
2023-05-25T04:21:03.761Z,15.02
2023-05-25T04:23:34.020Z,15.15
2023-05-25T04:26:06.144Z,15.17
2023-05-25T04:28:34.193Z,15.16
2023-05-25T04:31:13.951Z,15.18
2023-05-25T04:33:50.716Z,15.16
2023-05-25T04:36:27.242Z,15.18
2023-05-25T04:38:55.518Z,15.20
2023-05-25T04:41:25.919Z,15.21
2023-05-25T04:44:07.885Z,15.21
2023-05-25T04:46:40.822Z,15.24
2023-05-25T04:49:14.476Z,15.23
2023-05-25T04:51:44.226Z,15.24
2023-05-25T04:54:12.150Z,15.27
2023-05-25T04:56:40.641Z,15.31
2023-05-25T04:59:08.955Z,15.28
2023-05-25T05:01:41.029Z,15.24
2023-05-25T05:04:10.828Z,15.29
2023-05-25T05:06:40.732Z,15.38
2023-05-25T05:09:11.756Z,15.37
2023-05-25T05:11:39.631Z,15.39
2023-05-25T05:14:08.560Z,15.44
2023-05-25T05:16:37.628Z,15.47
2023-05-25T05:19:05.789Z,15.47
2023-05-25T05:21:33.863Z,15.54
2023-05-25T05:24:05.760Z,15.55
2023-05-25T05:26:51.862Z,15.58
2023-05-25T05:29:25.341Z,15.59
2023-05-25T05:31:54.589Z,15.61
2023-05-25T05:34:23.565Z,15.65
2023-05-25T05:36:57.831Z,15.71
2023-05-25T05:39:28.127Z,15.65
2023-05-25T05:41:58.570Z,15.63
2023-05-25T05:44:29.041Z,15.69
2023-05-25T05:47:00.837Z,15.72
2023-05-25T05:49:30.519Z,15.69
2023-05-25T05:51:59.664Z,15.73
2023-05-25T05:54:28.619Z,15.81
2023-05-25T05:57:01.586Z,15.79
2023-05-25T05:59:29.569Z,15.84
2023-05-25T06:01:57.585Z,15.84
2023-05-25T06:04:29.071Z,15.74
2023-05-25T06:06:58.941Z,15.71
2023-05-25T06:09:27.459Z,15.73
2023-05-25T06:12:01.599Z,15.76
2023-05-25T06:14:29.940Z,15.74
2023-05-25T06:17:02.041Z,15.76
2023-05-25T06:19:30.453Z,15.71
2023-05-25T06:21:58.603Z,15.77
2023-05-25T06:24:26.448Z,15.78
2023-05-25T06:26:54.234Z,15.84
2023-05-25T06:29:23.629Z,15.90
2023-05-25T06:31:51.558Z,15.92
2023-05-25T06:34:20.071Z,15.82
2023-05-25T06:36:48.276Z,15.85
2023-05-25T06:39:16.654Z,15.85
2023-05-25T06:41:45.010Z,15.82
2023-05-25T06:44:16.645Z,15.86
2023-05-25T06:46:49.545Z,15.94
2023-05-25T06:49:17.796Z,15.88
2023-05-25T06:51:46.344Z,15.88
2023-05-25T06:54:15.412Z,15.93
2023-05-25T06:56:43.538Z,15.80
2023-05-25T06:59:11.514Z,15.76
2023-05-25T07:01:39.465Z,15.79
2023-05-25T07:04:08.709Z,15.79
2023-05-25T07:06:36.665Z,15.85
2023-05-25T07:09:04.840Z,15.92
2023-05-25T07:11:32.774Z,15.72
2023-05-25T07:14:01.120Z,15.75
2023-05-25T07:16:29.429Z,15.88
2023-05-25T07:18:59.426Z,15.96
2023-05-25T07:21:33.651Z,15.94
2023-05-25T07:24:01.808Z,16.15
2023-05-25T07:26:29.808Z,15.93
2023-05-25T07:28:57.664Z,15.85
2023-05-25T07:31:25.712Z,15.83
2023-05-25T07:33:55.636Z,15.97
2023-05-25T07:36:24.936Z,15.96
2023-05-25T07:38:54.608Z,16.07
2023-05-25T07:41:23.608Z,16.12
2023-05-25T07:43:52.419Z,16.12
2023-05-25T07:46:25.258Z,16.16
2023-05-25T07:48:54.760Z,16.11
2023-05-25T07:51:23.363Z,16.04
2023-05-25T07:53:52.400Z,15.99
2023-05-25T07:56:21.880Z,16.01
2023-05-25T07:58:50.583Z,16.10
2023-05-25T08:01:19.097Z,16.18
2023-05-25T08:03:49.509Z,16.21
2023-05-25T08:06:18.301Z,16.07
2023-05-25T08:08:47.341Z,15.91
2023-05-25T08:11:16.751Z,15.75
2023-05-25T08:13:46.231Z,15.75
2023-05-25T08:16:14.480Z,15.91
2023-05-25T08:18:46.638Z,15.93
2023-05-25T08:21:14.911Z,15.80
2023-05-25T08:23:43.296Z,15.93
2023-05-25T08:26:31.298Z,15.98
2023-05-25T08:29:02.313Z,16.04
2023-05-25T08:31:30.394Z,16.03
2023-05-25T08:33:58.616Z,16.09
2023-05-25T08:36:26.703Z,15.99
2023-05-25T08:38:55.010Z,16.04
2023-05-25T08:41:23.108Z,16.16
2023-05-25T08:43:51.311Z,16.19
2023-05-25T08:46:31.137Z,16.10
2023-05-25T08:49:06.593Z,16.08
2023-05-25T08:51:38.213Z,16.03
2023-05-25T08:54:10.070Z,15.89
2023-05-25T08:56:43.232Z,16.01
2023-05-25T08:59:20.645Z,15.96
2023-05-25T09:01:55.159Z,16.12
2023-05-25T09:04:24.165Z,16.25
2023-05-25T09:09:23.481Z,16.35
2023-05-25T09:11:51.815Z,16.28
2023-05-25T09:14:20.662Z,16.23
2023-05-25T09:16:51.761Z,16.21
2023-05-25T09:19:19.751Z,16.17
2023-05-25T09:21:47.762Z,16.28
2023-05-25T09:24:16.835Z,16.21
2023-05-25T09:26:48.804Z,16.25
2023-05-25T09:29:17.506Z,16.36
2023-05-25T09:31:45.506Z,16.24
2023-05-25T09:34:15.107Z,16.24
2023-05-25T09:36:43.369Z,16.29
2023-05-25T09:39:12.181Z,16.28
2023-05-25T09:41:42.391Z,16.10
2023-05-25T09:44:11.998Z,16.14
2023-05-25T09:46:40.524Z,16.13
2023-05-25T09:49:10.498Z,16.12
2023-05-25T09:51:39.812Z,16.23
2023-05-25T09:54:11.473Z,16.37
2023-05-25T09:56:39.511Z,16.46
2023-05-25T09:59:07.732Z,16.44
2023-05-25T10:01:36.281Z,16.52
2023-05-25T10:04:05.953Z,16.58
2023-05-25T10:06:34.818Z,16.63
2023-05-25T10:09:06.820Z,16.74
2023-05-25T10:11:36.847Z,16.91
2023-05-25T10:14:08.732Z,16.89
2023-05-25T10:16:41.242Z,16.83
2023-05-25T10:19:18.366Z,16.83
2023-05-25T10:21:52.531Z,16.87
2023-05-25T10:24:27.861Z,16.95
2023-05-25T10:27:01.634Z,16.87
2023-05-25T10:29:35.679Z,16.84
2023-05-25T10:32:05.967Z,16.81
2023-05-25T10:34:34.113Z,16.94
2023-05-25T10:37:04.221Z,17.02
2023-05-25T10:39:35.593Z,17.03
2023-05-25T10:42:05.010Z,17.00
2023-05-25T10:44:33.254Z,16.93
2023-05-25T10:47:01.422Z,17.02
2023-05-25T10:49:33.817Z,17.02
2023-05-25T10:52:03.563Z,17.15
2023-05-25T10:54:36.215Z,17.09
2023-05-25T10:57:11.231Z,17.03
2023-05-25T10:59:42.170Z,17.06
2023-05-25T11:02:10.260Z,16.98
2023-05-25T11:04:38.553Z,16.98
2023-05-25T11:07:14.353Z,17.03
2023-05-25T11:09:45.268Z,17.13
2023-05-25T11:12:21.562Z,17.20
2023-05-25T11:15:12.660Z,17.21
2023-05-25T11:17:47.034Z,17.13
2023-05-25T11:20:28.014Z,17.30
2023-05-25T11:22:58.821Z,17.21
2023-05-25T11:25:44.237Z,17.30
2023-05-25T11:28:12.985Z,17.26
2023-05-25T11:30:43.024Z,17.33
2023-05-25T11:33:11.303Z,17.27
2023-05-25T11:35:39.724Z,17.41
2023-05-25T11:38:09.000Z,17.35
2023-05-25T11:40:40.266Z,17.10
2023-05-25T11:43:10.734Z,17.16
2023-05-25T11:45:39.513Z,17.10
2023-05-25T11:48:07.782Z,17.20
2023-05-25T11:50:35.827Z,17.22
2023-05-25T11:53:07.065Z,17.28
2023-05-25T11:55:35.228Z,17.38
2023-05-25T11:58:03.597Z,17.49
2023-05-25T12:00:33.285Z,17.54
2023-05-25T12:03:01.247Z,17.73
2023-05-25T12:05:38.575Z,17.78
2023-05-25T12:08:06.958Z,17.79
2023-05-25T12:10:34.962Z,17.78
2023-05-25T12:13:04.719Z,17.94
2023-05-25T12:15:34.426Z,17.96
2023-05-25T12:18:06.809Z,17.85
2023-05-25T12:20:35.096Z,17.95
2023-05-25T12:23:03.454Z,18.09
2023-05-25T12:25:42.321Z,18.11
2023-05-25T12:28:15.855Z,17.84
2023-05-25T12:30:45.819Z,17.66
2023-05-25T12:33:15.602Z,17.77
2023-05-25T12:35:47.778Z,17.82
2023-05-25T12:38:18.658Z,17.93
2023-05-25T12:40:46.998Z,18.03
2023-05-25T12:43:37.864Z,17.99
2023-05-25T12:46:08.000Z,18.04
2023-05-25T12:48:36.129Z,18.09
2023-05-25T12:51:04.212Z,18.32
2023-05-25T12:53:33.653Z,18.20
2023-05-25T12:56:02.590Z,18.16
2023-05-25T12:58:30.514Z,18.18
2023-05-25T13:00:58.450Z,18.06
2023-05-25T13:03:27.951Z,18.14
2023-05-25T13:06:02.303Z,18.15
2023-05-25T13:08:31.014Z,18.22
2023-05-25T13:10:59.128Z,18.22
2023-05-25T13:13:27.032Z,18.18
2023-05-25T13:15:55.005Z,18.37
2023-05-25T13:18:23.340Z,18.33
2023-05-25T13:20:56.301Z,18.43
2023-05-25T13:23:25.433Z,18.60
2023-05-25T13:25:53.455Z,18.43
2023-05-25T13:28:21.312Z,18.47
2023-05-25T13:30:49.229Z,18.15
2023-05-25T13:33:17.075Z,18.25
2023-05-25T13:35:58.571Z,18.29
2023-05-25T13:38:29.779Z,18.40
2023-05-25T13:40:58.039Z,18.38
2023-05-25T13:43:26.169Z,18.29
2023-05-25T13:45:54.116Z,18.22
2023-05-25T13:48:22.015Z,18.06
2023-05-25T13:50:49.887Z,18.20
2023-05-25T13:53:17.806Z,18.29
2023-05-25T13:55:47.312Z,18.32
2023-05-25T13:58:15.510Z,18.36
2023-05-25T14:00:43.678Z,18.42
2023-05-25T14:03:12.016Z,18.60
2023-05-25T14:05:39.859Z,18.57
2023-05-25T14:08:07.854Z,18.68
2023-05-25T14:10:36.275Z,18.77
2023-05-25T14:13:05.791Z,18.69
2023-05-25T14:15:33.639Z,18.45
2023-05-25T14:18:01.574Z,18.62
2023-05-25T14:20:31.680Z,18.57
2023-05-25T14:22:59.694Z,18.39
2023-05-25T14:25:27.691Z,18.31
2023-05-25T14:27:55.786Z,18.39
2023-05-25T14:30:25.372Z,18.48
2023-05-25T14:32:53.370Z,18.45
2023-05-25T14:35:21.305Z,18.67
2023-05-25T14:37:49.175Z,18.70
2023-05-25T14:40:17.744Z,18.82
2023-05-25T14:42:45.628Z,18.75
2023-05-25T14:45:15.855Z,18.74
2023-05-25T14:47:45.594Z,18.59
2023-05-25T14:50:13.892Z,18.73
2023-05-25T14:52:42.076Z,18.73
2023-05-25T14:55:11.397Z,18.92
2023-05-25T14:57:39.295Z,19.00
2023-05-25T15:00:08.609Z,18.90
2023-05-25T15:02:36.961Z,18.81
2023-05-25T15:05:07.719Z,18.91
2023-05-25T15:07:35.637Z,18.79
2023-05-25T15:10:03.733Z,18.97
2023-05-25T15:12:31.609Z,19.06
2023-05-25T15:14:59.569Z,19.07
2023-05-25T15:17:28.066Z,19.19
2023-05-25T15:19:56.321Z,19.30
2023-05-25T15:22:25.707Z,19.33
2023-05-25T15:24:53.665Z,19.20
2023-05-25T15:27:21.683Z,19.22
2023-05-25T15:29:49.483Z,19.24
2023-05-25T15:32:18.286Z,19.32
2023-05-25T15:34:46.334Z,19.19
2023-05-25T15:37:14.138Z,19.18
2023-05-25T15:39:43.777Z,19.10
2023-05-25T15:42:11.952Z,19.07
2023-05-25T15:44:39.917Z,19.08
2023-05-25T15:47:08.062Z,19.00
2023-05-25T15:49:37.250Z,19.14
2023-05-25T15:52:06.570Z,19.01
2023-05-25T15:54:34.495Z,19.11
2023-05-25T15:57:04.412Z,19.13
2023-05-25T15:59:32.214Z,19.10
2023-05-25T16:02:00.151Z,19.14
2023-05-25T16:04:28.124Z,19.02
2023-05-25T16:06:56.046Z,19.16
2023-05-25T16:09:23.832Z,18.99
2023-05-25T16:11:51.672Z,18.96
2023-05-25T16:14:20.756Z,18.91
2023-05-25T16:16:48.747Z,19.05
2023-05-25T16:19:16.849Z,18.96
2023-05-25T16:21:44.755Z,18.82
2023-05-25T16:24:12.887Z,18.73
2023-05-25T16:26:40.726Z,18.41
2023-05-25T16:29:08.882Z,18.46
2023-05-25T16:31:38.789Z,18.46
2023-05-25T16:34:06.964Z,18.18
2023-05-25T16:36:34.975Z,18.15
2023-05-25T16:39:02.981Z,18.21
2023-05-25T16:41:30.824Z,18.20
2023-05-25T16:43:58.824Z,18.15
2023-05-25T16:46:26.835Z,18.17
2023-05-25T16:48:56.578Z,18.18
2023-05-25T16:51:24.788Z,18.41
2023-05-25T16:53:53.817Z,18.44
2023-05-25T16:56:21.836Z,18.54
2023-05-25T16:58:49.679Z,18.66
2023-05-25T17:01:17.889Z,18.79
2023-05-25T17:03:46.049Z,18.70
2023-05-25T17:06:15.736Z,18.50
2023-05-25T17:08:43.677Z,18.36
2023-05-25T17:11:11.662Z,18.11
2023-05-25T17:13:39.544Z,18.12
2023-05-25T17:16:07.515Z,18.08
2023-05-25T17:18:35.518Z,18.11
2023-05-25T17:21:03.644Z,18.15
2023-05-25T17:23:32.927Z,18.16
2023-05-25T17:26:01.034Z,18.06
2023-05-25T17:28:28.837Z,18.09
2023-05-25T17:30:58.872Z,18.15
2023-05-25T17:33:27.027Z,18.16
2023-05-25T17:35:55.067Z,18.12
2023-05-25T17:38:23.089Z,18.12
2023-05-25T17:40:52.314Z,18.10
2023-05-25T17:43:20.113Z,17.93
2023-05-25T17:45:48.277Z,17.98
2023-05-25T17:48:16.911Z,17.93
2023-05-25T17:50:45.000Z,17.87
2023-05-25T17:53:12.960Z,18.03
2023-05-25T17:55:40.968Z,17.86
2023-05-25T17:58:10.146Z,17.84
2023-05-25T18:00:38.055Z,17.71
2023-05-25T18:03:06.155Z,17.67
2023-05-25T18:05:34.248Z,17.63
2023-05-25T18:08:02.255Z,17.60
2023-05-25T18:10:30.415Z,17.50
2023-05-25T18:12:58.485Z,17.47
2023-05-25T18:15:28.473Z,17.52
2023-05-25T18:17:56.611Z,17.62
2023-05-25T18:20:24.849Z,17.61
2023-05-25T18:22:52.877Z,17.65
2023-05-25T18:25:21.118Z,17.70
2023-05-25T18:27:48.925Z,17.74
2023-05-25T18:30:17.223Z,17.80
2023-05-25T18:32:46.455Z,17.76
2023-05-25T18:35:14.570Z,17.72
2023-05-25T18:37:42.843Z,17.56
2023-05-25T18:40:13.044Z,17.50
2023-05-25T18:42:41.049Z,17.46
2023-05-25T18:45:09.993Z,17.46
2023-05-25T18:47:37.988Z,17.35
2023-05-25T18:50:10.208Z,17.26
2023-05-25T18:52:38.051Z,17.19
2023-05-25T18:55:06.993Z,17.23
2023-05-25T18:57:34.999Z,17.23
2023-05-25T19:00:04.902Z,17.08
2023-05-25T19:02:33.494Z,17.06
2023-05-25T19:05:01.437Z,17.05
2023-05-25T19:07:30.991Z,17.02
2023-05-25T19:09:58.882Z,17.05
2023-05-25T19:12:26.660Z,16.98
2023-05-25T19:14:54.535Z,17.00
2023-05-25T19:17:22.509Z,17.14
2023-05-25T19:19:50.370Z,17.16
2023-05-25T19:22:18.139Z,17.24
2023-05-25T19:24:48.899Z,17.23
2023-05-25T19:27:21.879Z,17.29
2023-05-25T19:29:49.658Z,17.31
2023-05-25T19:32:18.026Z,17.20
2023-05-25T19:34:46.480Z,17.17
2023-05-25T19:37:14.313Z,17.04
2023-05-25T19:39:42.167Z,17.03
2023-05-25T19:42:11.378Z,16.98
2023-05-25T19:44:40.517Z,17.02
2023-05-25T19:47:08.777Z,17.12
2023-05-25T19:49:36.734Z,17.09
2023-05-25T19:52:05.378Z,17.12
2023-05-25T19:54:33.405Z,17.15
2023-05-25T19:57:01.630Z,17.10
2023-05-25T19:59:31.470Z,17.03
2023-05-25T20:01:59.689Z,16.99
2023-05-25T20:04:27.614Z,16.91
2023-05-25T20:06:55.668Z,16.90
2023-05-25T20:09:30.090Z,16.96
2023-05-25T20:11:59.121Z,16.91
2023-05-25T20:14:27.709Z,16.81
2023-05-25T20:16:58.626Z,16.79
2023-05-25T20:19:26.893Z,16.57
2023-05-25T20:21:55.212Z,16.56
2023-05-25T20:24:23.422Z,16.51
2023-05-25T20:26:56.997Z,16.50
2023-05-25T20:29:24.726Z,16.69
2023-05-25T20:31:53.338Z,16.48
2023-05-25T20:34:22.578Z,16.42
2023-05-25T20:36:50.634Z,16.43
2023-05-25T20:39:18.441Z,16.39
2023-05-25T20:41:46.709Z,16.47
2023-05-25T20:44:14.678Z,16.49
2023-05-25T20:46:42.726Z,16.52
2023-05-25T20:49:10.513Z,16.56
2023-05-25T20:51:39.712Z,16.53
2023-05-25T20:54:07.669Z,16.54
2023-05-25T20:56:35.750Z,16.50
2023-05-25T20:59:03.694Z,16.54
2023-05-25T21:01:31.715Z,16.47
2023-05-25T21:03:59.822Z,16.44
2023-05-25T21:06:28.072Z,16.48
2023-05-25T21:08:57.323Z,16.43
2023-05-25T21:11:26.252Z,16.40
2023-05-25T21:13:54.146Z,16.37
2023-05-25T21:16:22.125Z,16.33
2023-05-25T21:18:50.124Z,16.32
2023-05-25T21:21:18.028Z,16.27
2023-05-25T21:23:46.038Z,16.12
2023-05-25T21:26:15.220Z,16.07
2023-05-25T21:28:42.968Z,15.98
2023-05-25T21:31:10.873Z,16.03
2023-05-25T21:33:40.138Z,16.07
2023-05-25T21:36:08.755Z,16.02
2023-05-25T21:38:36.595Z,16.03
2023-05-25T21:41:05.019Z,15.94
2023-05-25T21:43:34.207Z,15.97
2023-05-25T21:46:02.434Z,16.02
2023-05-25T21:48:30.324Z,15.91
2023-05-25T21:50:58.522Z,15.98
2023-05-25T21:53:26.318Z,15.97
2023-05-25T21:55:54.408Z,15.90
2023-05-25T21:58:22.236Z,15.93
2023-05-25T22:00:52.171Z,15.92
2023-05-25T22:03:20.375Z,15.90
2023-05-25T22:05:48.659Z,15.85
2023-05-25T22:08:16.581Z,15.84
2023-05-25T22:10:44.904Z,15.86
2023-05-25T22:13:12.896Z,15.80
2023-05-25T22:15:40.667Z,15.68
2023-05-25T22:18:09.965Z,15.61
2023-05-25T22:20:41.560Z,15.69
2023-05-25T22:23:09.819Z,15.68
2023-05-25T22:25:37.896Z,15.67
2023-05-25T22:28:05.989Z,15.66
2023-05-25T22:30:33.903Z,15.60
2023-05-25T22:33:01.786Z,15.61
2023-05-25T22:35:31.032Z,15.55
2023-05-25T22:37:58.930Z,15.55
2023-05-25T22:40:26.766Z,15.58
2023-05-25T22:42:54.641Z,15.58
2023-05-25T22:45:23.060Z,15.55
2023-05-25T22:47:50.931Z,15.52
2023-05-25T22:50:19.131Z,15.56
2023-05-25T22:52:48.443Z,15.56
2023-05-25T22:55:16.569Z,15.59
2023-05-25T22:57:44.420Z,15.60
2023-05-25T23:00:13.229Z,15.52
2023-05-25T23:02:41.135Z,15.41
2023-05-25T23:05:10.338Z,15.47
2023-05-25T23:07:38.346Z,15.44
2023-05-25T23:10:08.789Z,15.40
2023-05-25T23:12:36.781Z,15.27
2023-05-25T23:15:07.059Z,15.23
2023-05-25T23:17:34.928Z,15.26
2023-05-25T23:22:35.233Z,15.21
2023-05-25T23:25:03.233Z,15.17
2023-05-25T23:27:32.913Z,15.16
2023-05-25T23:30:02.166Z,15.22
2023-05-25T23:32:45.131Z,15.22
2023-05-25T23:35:13.437Z,15.25
2023-05-25T23:37:41.683Z,15.25
2023-05-25T23:40:10.956Z,15.28
2023-05-25T23:42:45.171Z,15.18
2023-05-25T23:45:13.718Z,15.12
2023-05-25T23:47:41.773Z,15.16
2023-05-25T23:50:12.068Z,14.88
2023-05-25T23:52:39.945Z,14.84
2023-05-25T23:55:09.270Z,14.91
2023-05-25T23:57:37.172Z,14.87
